Weather observations for the past three days for
Elkhart, Elkhart-Morton County Airport
Imperial (Metric)
Date Time (cdt) Wind (mph) Vis. (mi.) Weather Sky Cond. Temperature (ºF) Relative Humidity Wind Chill (°F) Heat Index (°F) Pressure Precipitation (in)
Air Dwpt 6 hour altimeter (in) sea level (mb) 1 hr 3 hr 6 hr
Max. Min.
06 19:15 NW 9 5.00 Light Rain Fog/Mist BKN020 OVC027 42.1 37.4 84% 37 30.16 0.0 0.02
06 18:35 NE 6 10.00 Overcast OVC026 44.1 36 73% 41 30.13 0.0
06 18:15 NE 3 10.00 Overcast OVC024 44.6 35.8 71% 30.12 0.0
06 17:55 NE 7 10.00 Overcast OVC022 45.3 36.7 72% 42 30.12 0.0
06 17:15 E 8 10.00 Overcast BKN019 OVC023 44.8 36.7 73% 41 30.12 0.0
06 16:55 E 7 10.00 Overcast BKN020 OVC024 44.8 36.9 74% 41 30.12 0.0
06 16:35 E 8 10.00 Overcast OVC018 44.2 36.9 75% 40 30.12 0.0
06 16:15 E 8 10.00 Overcast OVC018 43.7 37 77% 40 30.12 0.0
06 15:55 SE 8 10.00 Overcast OVC018 43.2 36.5 77% 39 30.13 0.0
06 15:35 SE 9 10.00 Overcast OVC018 42.8 37.2 81% 38 30.13 0.0
06 15:15 SE 10 10.00 Overcast OVC020 42.1 37.2 83% 37 30.13 0.0
06 14:55 E 12 10.00 Overcast SCT008 OVC020 41.9 37.9 86% 36 30.12 0.0
06 14:35 E 12 10.00 Overcast SCT008 SCT012 OVC020 41 38.5 91% 35 30.12 0.0
06 14:15 E 12 10.00 Overcast BKN008 BKN014 OVC020 40.6 38.7 93% 34 30.13 0.0
06 13:55 E 12 10.00 Light Drizzle SCT006 OVC017 40.5 38.3 92% 34 30.13 0.0
06 13:35 E 10 10.00 Light Drizzle BKN006 OVC014 40.5 38.7 93% 35 30.14 0.0
06 13:15 E 13 5.00 Fog/Mist SCT008 BKN014 OVC020 40.6 38.7 93% 34 30.14 0.0
06 12:55 E 15 10.00 Overcast OVC014 40.5 37.2 40.6 37.2 88% 33 30.14 0.0 0.03
06 12:35 E 13 10.00 Overcast BKN012 OVC016 40.3 37.4 90% 34 30.14 0.0
06 12:15 E 14 10.00 Overcast OVC013 39.9 37.2 90% 33 30.14 0.0
06 11:55 E 14 10.00 Overcast SCT009 OVC013 39.7 37.2 91% 33 30.13 0.0
06 11:35 E 13 10.00 Overcast BKN007 OVC013 39.6 37.2 91% 33 30.12 0.0
06 11:15 E 12 10.00 Overcast OVC007 39.4 37.8 94% 33 30.12 0.0
06 10:55 E 16 10.00 Overcast OVC007 38.8 37.4 95% 31 30.11 0.0 0.01
06 10:35 E 16 5.00 Fog/Mist OVC005 38.5 37.6 97% 30 30.1 0.0 0.01
06 10:15 E 14 4.00 Fog/Mist OVC005 39 38.1 97% 32 30.09 0.0 0.01
06 09:55 E 15 4.00 Light Drizzle Fog/Mist OVC003 38.3 37.4 97% 30 30.1 0.0 0.02
06 09:35 E 15 4.00 Light Drizzle Fog/Mist OVC003 38.1 37.2 97% 30 30.1 0.0
06 09:15 E 14 3.00 Drizzle Fog/Mist OVC003 37.9 37.2 97% 30 30.1 0.0
06 08:55 E 14 5.00 Light Drizzle Fog/Mist OVC003 37.8 37 97% 30 30.1 0.0 0.01
06 08:35 SE 13 10.00 Light Drizzle OVC003 37.8 37 97% 30 30.09 0.0 0.01
06 08:15 SE 16 7.00 Drizzle OVC003 37.6 36.9 97% 29 30.09 0.0
06 07:55 SE 13 5.00 Light Drizzle Fog/Mist BKN003 OVC007 37.4 36.9 98% 30 30.09 0.0 0.01
06 07:35 SE 16 7.00 Fog/Mist BKN003 OVC008 37.4 36.7 97% 29 30.08 0.0 0.01
06 07:15 E 14 3.00 Light Drizzle Fog/Mist OVC003 37.6 36.9 97% 30 30.06 0.0 0.01
06 06:55 SE 14 4.00 Fog/Mist BKN003 OVC007 37.2 36.5 41.4 37.2 97% 29 30.06 0.0
06 06:35 E 15 5.00 Light Drizzle Fog/Mist OVC003 37.9 37 97% 30 30.05 0.0
06 06:15 E 13 3.50 Light Drizzle Fog/Mist OVC003 37.9 37 97% 31 30.04 0.0
06 05:55 E 12 2.50 Light Drizzle Fog/Mist OVC003 37.9 37 97% 31 30.04 0.0
06 05:35 E 12 2.50 Light Drizzle Fog/Mist OVC003 37.9 36.9 96% 31 30.03 0.0
06 05:15 E 12 3.00 Light Drizzle Fog/Mist OVC003 37.9 36.7 95% 31 30.03 0.0
06 04:55 E 15 5.00 Light Drizzle Fog/Mist OVC005 38.5 36.5 93% 31 30.02 0.0
06 04:35 E 13 10.00 Overcast OVC007 39.2 36.3 89% 32 30.02 0.0
06 04:15 E 12 10.00 Overcast OVC007 39.4 36 88% 33 30.01 0.0
06 03:55 E 10 10.00 Overcast OVC009 39.4 35.4 86% 33 30.02 0.0
06 03:35 E 13 10.00 Overcast OVC009 39.6 35.2 85% 33 30.01 0.0
06 03:15 E 15 10.00 Overcast OVC009 39.6 35.2 85% 32 30.01 0.0
06 02:55 E 16 10.00 Overcast OVC011 39.7 34.9 83% 32 30.01 0.0
06 02:35 E 15 G 18 10.00 Overcast OVC011 40.1 34.7 81% 33 30.02 0.0
06 02:15 E 14 10.00 Overcast OVC011 40.5 35.1 81% 33 30.03 0.0
06 01:55 E 15 10.00 Overcast BKN013 OVC018 40.8 35.4 81% 34 30.03 0.0
06 01:35 E 17 10.00 Overcast SCT013 OVC018 41 35.4 81% 33 30.02 0.0
06 01:15 E 15 10.00 Overcast OVC018 41.2 35.4 80% 34 30.03 0.0
06 00:55 NE 16 10.00 Overcast OVC020 41.4 35.2 51.1 41.4 79% 34 30.01 0.0
06 00:35 NE 15 10.00 Overcast OVC020 41.9 35.8 79% 35 30.01 0.0
06 00:15 NE 16 10.00 Light Rain OVC022 41.7 36.1 81% 34 29.99 0.0
05 23:55 E 15 10.00 Light Rain OVC022 42.3 36.1 79% 35 29.99 0.0
05 23:35 NE 15 10.00 Light Rain OVC026 43.5 34.9 72% 37 29.99 0.0
05 23:15 E 14 10.00 Overcast OVC028 43.9 35.1 71% 38 29.98 0.0
05 22:55 NE 14 10.00 Overcast OVC026 44.2 35.1 70% 38 29.98 0.0
05 22:35 NE 13 10.00 Overcast OVC026 45 35.6 70% 39 29.99 0.0
05 22:15 E 14 10.00 Overcast OVC029 46.6 36.1 67% 41 29.96 0.0
05 21:55 E 9 10.00 Overcast OVC031 47.1 37.8 70% 43 29.95 0.0
05 21:35 E 8 10.00 Overcast OVC033 47.3 38.5 72% 44 29.93 0.0
05 21:15 E 7 10.00 Overcast OVC035 47.3 37.9 70% 44 29.93 0.0
05 20:55 E 9 10.00 Overcast OVC035 47.3 37.8 70% 43 29.92 0.0
05 20:35 E 10 7.00 Overcast OVC035 47.5 37.6 69% 43 29.91 0.0
05 20:15 SE 13 10.00 Light Rain BKN035 BKN042 OVC070 48 36.7 65% 43 29.9 0.0
05 19:55 E 9 10.00 Light Drizzle OVC037 48.7 36.3 62% 45 29.91 0.0
05 19:35 E 12 10.00 Light Rain OVC037 49.6 35.8 59% 46 29.91 0.0
05 19:15 E 10 10.00 Overcast OVC037 50.5 34.9 55% 29.92 0.0
05 18:55 E 8 10.00 Overcast OVC037 50.9 34.2 54.7 50.5 53% 29.92 0.0
05 18:35 E 10 10.00 Overcast OVC039 51.4 34.2 52% 29.91 0.0
05 18:15 E 14 10.00 Overcast OVC039 52 33.8 50% 29.91 0.0
05 17:55 E 12 10.00 Overcast OVC041 52.7 33.8 49% 29.91 0.0
05 17:35 E 12 10.00 Overcast OVC041 53.1 33.6 48% 29.91 0.0
05 17:15 E 10 10.00 Overcast OVC041 53.2 33.3 47% 29.91 0.0
05 16:55 NE 10 10.00 Overcast OVC041 53.1 33.3 47% 29.92 0.0
05 16:35 E 13 10.00 Overcast OVC041 53.4 33.3 47% 29.91 0.0
05 16:15 E 12 10.00 Overcast OVC039 53.2 33.3 47% 29.91 0.0
05 15:55 E 13 10.00 Overcast OVC039 54.3 33.4 45% 29.91 0.0
05 15:35 E 12 10.00 Overcast OVC039 53.6 33.6 47% 29.92 0.0
05 15:15 E 12 10.00 Overcast OVC037 53.4 33.4 47% 29.92 0.0
05 14:55 E 12 G 16 10.00 Overcast OVC037 54.3 34 46% 29.94 0.0
05 14:35 E 13 G 16 10.00 Overcast OVC037 53.2 34 48% 29.94 0.0
05 14:15 E 13 10.00 Overcast OVC037 53.6 34.2 48% 29.94 0.0
05 13:55 NE 12 10.00 Overcast BKN035 OVC044 52.2 34.2 50% 29.94 0.0
05 13:35 NE 12 10.00 Overcast BKN035 OVC044 51.4 34.2 52% 29.95 0.0
05 13:15 NE 12 G 17 10.00 Overcast SCT033 OVC044 51.4 34 51% 29.96 0.0
05 12:55 NE 14 10.00 Overcast BKN033 OVC044 51.6 34.2 52 48.6 51% 29.95 0.0
05 12:35 NE 12 10.00 Overcast OVC031 50.9 34.3 53% 29.96 0.0
05 12:15 NE 14 10.00 Overcast OVC031 50.7 34.2 53% 29.96 0.0
05 11:55 NE 17 10.00 Overcast OVC031 50.4 34.2 54% 29.96 0.0
05 11:35 NE 14 10.00 Overcast OVC031 49.8 34.5 56% 45 29.96 0.0
05 11:15 NE 15 G 20 10.00 Overcast OVC031 49.6 34.3 56% 45 29.96 0.0
05 10:55 NE 17 10.00 Overcast BKN031 OVC041 48.9 33.8 56% 43 29.97 0.0
05 10:35 NE 21 10.00 Overcast and Breezy BKN029 OVC041 49.1 34 56% 43 29.96 0.0
05 10:15 NE 20 G 26 10.00 Overcast BKN029 OVC041 49.1 33.8 56% 43 29.95 0.0
05 09:55 NE 22 10.00 Overcast and Breezy SCT029 OVC041 49.3 33.3 54% 43 29.95 0.0
05 09:35 N 20 G 26 10.00 Overcast OVC041 49.5 33.1 53% 43 29.95 0.0
05 09:15 NE 20 10.00 Overcast OVC043 49.5 32.9 53% 43 29.94 0.0
05 08:55 NE 18 G 25 10.00 Overcast OVC043 49.5 33.8 55% 44 29.94 0.0
05 08:35 NE 17 10.00 Overcast OVC043 49.3 33.6 55% 44 29.94 0.0
05 08:15 NE 20 G 25 10.00 Overcast BKN045 OVC050 49.5 33.4 54% 43 29.92 0.0
05 07:55 NE 17 10.00 Overcast BKN049 OVC055 48.7 33.8 56% 43 29.9 0.0
05 07:35 NE 18 10.00 Overcast OVC046 48.7 33.6 56% 43 29.89 0.0
05 06:55 NE 21 10.00 Overcast and Breezy OVC037 49.1 33.4 63.1 49.1 55% 43 29.87 0.0
05 06:35 NE 20 10.00 Overcast OVC035 49.6 33.3 53% 44 29.87 0.0
05 06:15 NE 22 G 30 10.00 Overcast and Breezy OVC035 50 32.9 52% 44 29.85 0.0
05 05:55 NE 18 G 30 10.00 Overcast OVC031 50 32.9 52% 44 29.83 0.0
05 05:35 NE 25 G 30 10.00 Overcast and Breezy OVC031 49.8 33.1 53% 43 29.81 0.0
05 05:15 NE 28 G 35 10.00 Overcast and Windy OVC031 50.2 32.5 51% 29.82 0.0
05 04:55 NE 29 G 35 10.00 Overcast and Windy OVC031 50.9 32.7 50% 29.83 0.0
05 04:35 NE 24 G 29 10.00 Overcast and Breezy OVC033 51.3 32.7 49% 29.83 0.0
05 04:15 N 26 G 33 10.00 Overcast and Windy OVC033 51.3 32.5 49% 29.82 0.0
05 03:55 N 28 G 33 10.00 Overcast and Windy OVC033 51.8 34 51% 29.81 0.0
05 03:35 N 22 G 31 10.00 Partly Cloudy and Breezy SCT033 52 34.3 51% 29.78 0.0
05 03:15 N 25 G 30 10.00 Fair and Breezy CLR 53.1 35.4 51% 29.77 0.0
05 02:55 NE 26 G 33 10.00 Fair and Windy CLR 54.3 36 50% 29.77 0.0
05 02:35 N 28 G 35 10.00 Fair and Windy CLR 55.2 37.6 52% 29.76 0.0
05 02:15 NE 25 G 32 10.00 Fair and Breezy CLR 55.8 39.7 55% 29.73 0.0
05 01:55 NE 23 G 30 10.00 Fair and Breezy CLR 56.8 40.8 55% 29.72 0.0
05 01:35 NE 26 G 35 10.00 Fair and Windy CLR 58.8 41.4 53% 29.7 0.0
05 01:15 NE 24 G 30 10.00 Fair and Breezy CLR 60.6 40.1 47% 29.68 0.0
05 00:55 NE 24 G 31 10.00 Fair and Breezy CLR 63.7 38.1 83.7 62.2 39% 29.67 0.0
05 00:35 NE 24 G 29 10.00 Fair and Breezy CLR 65.5 36.7 35% 29.64 0.0
05 00:15 NE 7 10.00 Fair CLR 63.9 33.8 33% 29.62 0.0
04 23:55 NE 9 10.00 Fair CLR 64.9 32.7 30% 29.63 0.0
04 23:35 NE 10 10.00 Fair CLR 63.5 31.1 30% 29.62 0.0
04 23:15 NE 10 10.00 Fair CLR 67.1 29.3 24% 29.62 0.0
04 22:55 N 12 10.00 Fair CLR 67.1 30.6 26% 29.63 0.0
04 22:35 SW 6 10.00 Fair CLR 70.9 32.2 24% 29.63 0.0
04 22:15 SW 7 10.00 Fair CLR 66.6 32 28% 29.63 0.0
04 21:55 S 6 10.00 Partly Cloudy SCT120 67.1 38.3 35% 29.62 0.0
04 21:35 W 5 10.00 Partly Cloudy SCT120 71.4 32.2 24% 29.63 0.0
04 21:15 W 6 10.00 Fair CLR 72.7 29.1 20% 29.62 0.0
04 20:55 W 6 10.00 Fair CLR 74.5 29.3 19% 29.62 0.0
04 20:35 SW 7 10.00 Fair CLR 74.8 29.3 19% 29.62 0.0
04 20:15 W 7 10.00 Fair CLR 77.7 27.7 16% 77 29.62 0.0
04 19:55 SW 7 10.00 Fair CLR 78.8 27.5 15% 78 29.62 0.0
04 19:35 SW 8 10.00 Fair CLR 81.9 26.6 13% 80 29.62 0.0
04 19:15 W 12 10.00 Fair CLR 82.6 21.2 10% 80 29.63 0.0
04 18:55 W 12 10.00 Fair CLR 83.1 21.9 86.9 82 10% 80 29.63 0.0
04 18:35 W 17 G 21 10.00 Fair CLR 83.5 21.9 10% 81 29.63 0.0
04 18:15 W 12 G 24 10.00 Fair CLR 84.7 23 10% 82 29.63 0.0
04 17:55 W 18 G 24 10.00 Fair CLR 84 24.1 11% 81 29.64 0.0
04 17:35 W 18 G 24 10.00 Fair CLR 84.6 23.4 10% 82 29.64 0.0
04 16:55 W 15 10.00 Fair CLR 84.2 22.8 10% 81 29.65 0.0
04 16:35 W 13 G 16 10.00 Fair CLR 84.7 21.2 9% 82 29.66 0.0
04 16:15 W 14 G 22 10.00 Fair CLR 86.4 23.7 10% 83 29.67 0.0
04 15:55 W 14 G 23 10.00 Fair CLR 85.1 24.8 11% 82 29.68 0.0
04 15:35 W 14 G 20 10.00 Fair CLR 84.6 25.5 11% 82 29.69 0.0
04 15:15 W 15 G 22 10.00 Fair CLR 83.7 27.7 13% 81 29.69 0.0
04 14:55 SW 14 10.00 Fair CLR 82.6 28.8 14% 80 29.7 0.0
04 14:35 W 13 10.00 Fair CLR 82.9 29.3 14% 80 29.71 0.0
04 14:15 W 20 G 26 10.00 Fair CLR 82.6 29.3 14% 80 29.72 0.0
04 13:55 W 12 G 25 10.00 Fair CLR 82.4 29.5 15% 80 29.72 0.0
04 13:35 W 17 G 24 10.00 Fair CLR 82.8 28.8 14% 80 29.73 0.0
04 12:55 W 13 10.00 Fair CLR 83.1 29.8 83.8 53.1 14% 80 29.75 0.0
04 12:35 W 9 G 16 10.00 Fair CLR 82.6 25.2 12% 80 29.76 0.0
04 12:15 NW 12 10.00 Fair CLR 82 25.2 12% 80 29.76 0.0
04 11:35 NW 12 G 18 10.00 Fair CLR 81.5 27.7 14% 79 29.77 0.0
04 11:15 NW 15 10.00 Fair CLR 80.2 28.6 15% 78 29.78 0.0
04 10:55 NW 15 G 21 10.00 Fair CLR 79.3 28 15% 78 29.78 0.0
04 10:35 NW 15 G 18 10.00 Fair CLR 78.1 27 15% 77 29.78 0.0
04 10:15 W 13 10.00 Fair CLR 75.6 28.9 18% 76 29.79 0.0
04 09:55 W 13 10.00 Fair CLR 73.6 29.8 20% 29.79 0.0
04 09:35 W 14 10.00 Fair CLR 71.1 30.2 22% 29.79 0.0
04 09:15 W 14 10.00 Fair CLR 69.1 30.9 24% 29.79 0.0
04 08:55 W 13 10.00 Fair CLR 65.1 31.3 28% 29.8 0.0
04 08:35 W 13 10.00 Fair CLR 62.6 30.9 30% 29.79 0.0
04 08:15 W 16 10.00 Fair CLR 60.1 30.4 33% 29.8 0.0
04 07:55 W 14 10.00 Fair CLR 56.7 31.1 38% 29.79 0.0
04 07:35 W 14 10.00 Fair CLR 55.8 30.7 39% 29.78 0.0
04 07:15 W 14 10.00 Fair CLR 54 31.3 42% 29.77 0.0
04 06:55 W 13 10.00 Fair CLR 53.2 31.5 63.5 52 44% 29.76 0.0
04 06:35 W 13 10.00 Fair CLR 53.1 32.2 45% 29.76 0.0
04 06:15 W 14 10.00 Fair CLR 53.6 33.3 46% 29.75 0.0
04 05:55 W 14 10.00 Fair CLR 53.1 34 48% 29.75 0.0
04 05:35 W 15 10.00 Fair CLR 52.5 36 53% 29.75 0.0
04 05:15 W 14 10.00 Fair CLR 52.7 38.5 59% 29.75 0.0
04 04:55 W 13 10.00 Fair CLR 52.5 38.8 60% 29.75 0.0
04 04:35 W 16 10.00 Fair CLR 54.7 38.7 55% 29.75 0.0
04 04:15 W 13 10.00 Fair CLR 54.9 39.2 56% 29.75 0.0
04 03:55 W 12 10.00 Fair CLR 54.7 39.7 57% 29.75 0.0
04 03:35 SW 12 10.00 Fair CLR 55 39.4 56% 29.76 0.0
04 03:15 SW 12 10.00 Fair CLR 56.3 39.2 53% 29.77 0.0
04 02:55 SW 12 10.00 Fair CLR 56.7 37.8 49% 29.77 0.0
04 02:35 SW 9 10.00 Fair CLR 58.8 37.8 46% 29.78 0.0
04 02:15 SW 16 10.00 Fair CLR 61.3 37.8 42% 29.78 0.0
04 01:55 W 15 10.00 Fair CLR 62.4 38.3 41% 29.8 0.0
04 01:35 SW 20 10.00 Fair CLR 63.5 38.7 40% 29.8 0.0
04 01:15 SW 20 10.00 Fair CLR 62.4 36.3 38% 29.8 0.0
04 00:55 SW 17 10.00 Fair CLR 62.2 34.5 82.8 60.6 36% 29.8 0.0
04 00:35 SW 16 10.00 Fair CLR 60.8 33.1 35% 29.81 0.0
04 00:15 SW 16 10.00 Fair CLR 61.9 32.2 33% 29.81 0.0
03 23:35 SW 18 10.00 Fair CLR 64 30.9 29% 29.81 0.0
03 23:15 SW 18 10.00 Fair CLR 63.7 30.9 29% 29.82 0.0
03 22:55 SW 16 10.00 Fair CLR 63 31.3 30% 29.82 0.0
03 22:35 SW 16 10.00 Fair CLR 63.5 30.9 29% 29.82 0.0
03 22:15 SW 17 10.00 Fair CLR 64.6 30.9 28% 29.82 0.0
03 21:55 SW 15 10.00 Fair CLR 63 30.7 30% 29.82 0.0
03 21:35 S 13 10.00 Fair CLR 64 29.8 28% 29.81 0.0
03 21:15 SW 15 10.00 Fair CLR 66.6 27.9 23% 29.81 0.0
03 20:55 S 13 10.00 Fair CLR 66.4 27.5 23% 29.8 0.0
03 20:35 S 12 10.00 Fair CLR 70.2 27.3 20% 29.8 0.0
03 20:15 S 12 10.00 Fair CLR 71.8 27.7 19% 29.8 0.0
03 19:55 S 14 10.00 Fair CLR 77.4 23.2 13% 77 29.8 0.0
03 19:35 S 12 10.00 Fair CLR 81 20.8 11% 79 29.8 0.0
Date Time (cdt) Wind (mph) Vis. (mi.) Weather Sky Cond. Air Dwpt Max. Min. Relative Humidity Wind Chill (°F) Heat Index (°F) altimeter (in) sea level (mb) 1 hr 3 hr 6 hr
6 hour
Temperature (ºF) Pressure Precipitation (in)